Time;durP1;ratioP1;P1;durP2;ratioP2;P2;SDS_P1;SDS_P2;PMS_P1;PMS_P2;Temp;Humidity;BMP_temperature;BMP_pressure;BME280_temperature;BME280_humidity;BME280_pressure;Samples;Min_cycle;Max_cycle;Signal;HPM_P1;HPM_P2
2022/10/10 00:01:14;;;;;;;;;;;8.40;99.90;;;;;;6217627;23;20012;-83
2022/10/10 00:03:41;;;;;;;0.35;0.20;;;8.30;99.90;;;;;;6192007;23;19916;-83
2022/10/10 00:06:07;;;;;;;;;;;8.30;99.90;;;;;;6217700;23;20059;-85
2022/10/10 00:08:32;;;;;;;0.52;0.38;;;8.30;99.90;;;;;;6216150;23;19973;-84
2022/10/10 00:10:58;;;;;;;0.10;0.10;;;8.30;99.90;;;;;;6216711;23;20416;-83
2022/10/10 00:13:24;;;;;;;1.50;0.20;;;8.30;99.90;;;;;;6217378;23;20012;-86
2022/10/10 00:15:50;;;;;;;0.60;0.30;;;8.30;99.90;;;;;;6192338;23;20346;-83
2022/10/10 00:18:16;;;;;;;0.30;0.30;;;8.20;99.90;;;;;;6192012;23;20020;-83
2022/10/10 00:20:41;;;;;;;0.20;0.20;;;8.20;99.90;;;;;;6215226;23;20022;-83
2022/10/10 00:23:07;;;;;;;0.40;0.30;;;8.10;99.90;;;;;;6192535;23;20022;-83
2022/10/10 00:25:33;;;;;;;0.63;0.30;;;8.10;99.90;;;;;;6190954;23;20055;-83
2022/10/10 00:28:03;;;;;;;0.23;0.20;;;8.00;99.90;;;;;;6192403;23;20074;-83
2022/10/10 00:30:29;;;;;;;0.52;0.10;;;8.00;99.90;;;;;;6216271;23;20016;-84
2022/10/10 00:32:57;;;;;;;0.50;0.50;;;7.90;99.90;;;;;;6191974;23;20059;-83
2022/10/10 00:35:23;;;;;;;0.43;0.32;;;7.80;99.90;;;;;;6217565;23;20020;-83
2022/10/10 00:37:49;;;;;;;0.63;0.33;;;7.80;99.90;;;;;;6218166;23;20012;-82
2022/10/10 00:40:15;;;;;;;0.50;0.40;;;7.70;99.90;;;;;;6169456;23;20023;-84
2022/10/10 00:42:40;;;;;;;0.77;0.40;;;7.70;99.90;;;;;;6219115;23;20020;-83
2022/10/10 00:45:38;;;;;;;0.73;0.23;;;7.70;99.90;;;;;;6220374;23;20024;-83
2022/10/10 00:48:05;;;;;;;0.75;0.52;;;7.70;99.90;;;;;;6219860;23;20050;-83
2022/10/10 00:50:34;;;;;;;0.57;0.32;;;7.60;99.90;;;;;;6192142;23;20016;-84
2022/10/10 00:53:02;;;;;;;0.25;0.20;;;7.60;99.90;;;;;;6194203;23;20024;-83
2022/10/10 00:55:28;;;;;;;0.17;0.15;;;7.60;99.90;;;;;;6218721;23;20020;-83
2022/10/10 00:57:54;;;;;;;0.37;0.20;;;7.70;99.90;;;;;;6193882;23;20090;-83
2022/10/10 01:00:20;;;;;;;0.80;0.30;;;7.60;99.90;;;;;;6218310;23;20436;-84
2022/10/10 01:02:46;;;;;;;0.40;0.30;;;8.50;99.90;;;;;;6194542;23;20254;-83
2022/10/10 01:05:11;;;;;;;0.17;0.10;;;8.00;99.90;;;;;;6169218;23;20345;-83
2022/10/10 01:07:37;;;;;;;0.20;0.20;;;8.10;99.90;;;;;;6193631;23;20023;-84
2022/10/10 01:10:14;;;;;;;0.30;0.30;;;7.60;99.90;;;;;;6219055;23;20031;-83
2022/10/10 01:13:19;;;;;;;0.30;0.30;;;7.50;99.90;;;;;;6193317;23;20118;-86
2022/10/10 01:15:58;;;;;;;0.22;0.20;;;7.50;99.90;;;;;;6192249;23;20016;-83
2022/10/10 01:18:42;;;;;;;0.75;0.40;;;7.50;99.90;;;;;;6219166;23;20024;-83
2022/10/10 01:21:55;;;;;;;1.63;0.60;;;7.50;99.90;;;;;;6193280;23;20023;-84
2022/10/10 01:24:37;;;;;;;0.30;0.30;;;7.40;99.90;;;;;;6182469;23;20446;-83
2022/10/10 01:27:25;;;;;;;0.50;0.38;;;7.40;99.90;;;;;;6157922;23;20017;-83
2022/10/10 01:29:52;;;;;;;0.40;0.40;;;7.40;99.90;;;;;;6185598;23;20457;-83
2022/10/10 01:32:43;;;;;;;0.25;0.25;;;7.40;99.90;;;;;;6218192;23;20020;-84
2022/10/10 01:35:35;;;;;;;0.70;0.35;;;7.10;99.90;;;;;;6218594;23;20016;-83
2022/10/10 01:38:19;;;;;;;0.40;0.40;;;7.30;99.90;;;;;;6148631;23;20016;-84
2022/10/10 01:40:59;;;;;;;0.47;0.25;;;7.30;99.90;;;;;;6192680;23;20357;-83
2022/10/10 01:43:25;;;;;;;0.70;0.30;;;7.30;99.90;;;;;;6193782;23;20016;-84
2022/10/10 01:45:52;;;;;;;0.10;0.10;;;7.20;99.90;;;;;;6217932;23;20078;-83
2022/10/10 01:48:27;;;;;;;0.20;0.20;;;7.20;99.90;;;;;;6193677;23;20086;-83
2022/10/10 01:51:26;;;;;;;0.50;0.40;;;7.20;99.90;;;;;;6192629;23;20027;-84
2022/10/10 01:54:04;;;;;;;0.30;0.20;;;7.20;99.90;;;;;;6218270;23;20019;-86
2022/10/10 01:56:37;;;;;;;1.10;0.40;;;7.10;99.90;;;;;;6193472;23;20020;-83
2022/10/10 01:59:27;;;;;;;0.63;0.25;;;7.10;99.90;;;;;;6218477;23;20020;-83
2022/10/10 02:02:14;;;;;;;0.38;0.38;;;7.10;99.90;;;;;;6217646;23;20437;-83
2022/10/10 02:04:51;;;;;;;1.38;1.05;;;7.00;99.90;;;;;;6218443;23;20020;-87
2022/10/10 02:07:53;;;;;;;1.13;0.30;;;7.00;99.90;;;;;;6218323;23;20457;-83
2022/10/10 02:10:27;;;;;;;0.20;0.20;;;7.10;99.90;;;;;;6214176;23;20016;-83
2022/10/10 02:12:56;;;;;;;0.10;0.10;;;7.00;99.90;;;;;;6217457;23;20087;-83
2022/10/10 02:15:25;;;;;;;0.95;0.65;;;7.00;99.90;;;;;;6218104;23;20012;-83
2022/10/10 02:17:53;;;;;;;0.85;0.30;;;7.10;99.90;;;;;;6218034;23;20134;-83
2022/10/10 02:20:23;;;;;;;0.43;0.30;;;7.10;99.90;;;;;;6245175;23;20016;-83
2022/10/10 02:22:50;;;;;;;0.20;0.20;;;7.00;99.90;;;;;;6192187;23;20523;-83
2022/10/10 02:25:17;;;;;;;;;;;7.00;99.90;;;;;;6219109;23;20013;-85
2022/10/10 02:28:04;;;;;;;1.33;0.30;;;7.00;99.90;;;;;;6193180;23;19920;-87
2022/10/10 02:30:33;;;;;;;0.50;0.50;;;7.00;99.90;;;;;;6217458;23;20016;-83
2022/10/10 02:33:02;;;;;;;1.75;0.15;;;7.00;99.90;;;;;;6217136;23;20016;-83
2022/10/10 02:35:33;;;;;;;1.10;0.35;;;7.00;99.90;;;;;;6218202;23;20015;-83
2022/10/10 02:38:01;;;;;;;0.40;0.40;;;7.10;99.90;;;;;;6192994;23;20082;-83
2022/10/10 02:40:30;;;;;;;0.30;0.30;;;7.10;99.90;;;;;;6192814;23;20020;-83
2022/10/10 02:42:59;;;;;;;0.68;0.40;;;7.10;99.90;;;;;;6244307;23;20027;-83
2022/10/10 02:45:27;;;;;;;0.43;0.43;;;7.10;99.90;;;;;;6218269;23;20016;-83
2022/10/10 02:47:53;;;;;;;0.55;0.55;;;7.20;99.90;;;;;;6217697;23;20131;-83
2022/10/10 02:50:20;;;;;;;0.88;0.50;;;7.40;99.90;;;;;;6217544;23;20456;-83
2022/10/10 02:52:46;;;;;;;;;;;7.30;99.90;;;;;;6168580;23;20016;-86
2022/10/10 02:55:12;;;;;;;0.10;0.10;;;7.30;99.90;;;;;;6193061;23;20332;-83
2022/10/10 02:57:38;;;;;;;0.73;0.53;;;7.30;99.90;;;;;;6168556;23;20062;-83
2022/10/10 03:00:05;;;;;;;2.08;0.43;;;7.30;99.90;;;;;;6243982;23;20027;-85
2022/10/10 03:02:31;;;;;;;0.60;0.40;;;7.30;99.90;;;;;;6217944;23;20052;-83
2022/10/10 03:04:57;;;;;;;1.30;0.30;;;7.40;99.90;;;;;;6192661;23;20023;-83
2022/10/10 03:07:24;;;;;;;0.30;0.30;;;7.80;99.90;;;;;;6192962;23;20016;-83
2022/10/10 03:09:50;;;;;;;0.82;0.30;;;7.40;99.90;;;;;;6217563;23;20020;-84
2022/10/10 03:12:16;;;;;;;0.73;0.45;;;7.50;99.90;;;;;;6192490;23;20027;-84
2022/10/10 03:14:42;;;;;;;0.67;0.57;;;8.40;99.90;;;;;;6218433;23;20024;-83
2022/10/10 03:17:08;;;;;;;0.30;0.30;;;7.50;99.90;;;;;;6192316;23;20467;-83
2022/10/10 03:19:34;;;;;;;0.30;0.30;;;7.50;99.90;;;;;;6217246;23;20099;-84
2022/10/10 03:21:59;;;;;;;0.30;0.30;;;8.30;99.90;;;;;;6216514;23;20089;-83
2022/10/10 03:24:25;;;;;;;1.07;0.50;;;7.50;99.90;;;;;;6168338;23;20031;-85
2022/10/10 03:26:51;;;;;;;0.30;0.30;;;7.50;99.90;;;;;;6192332;23;20043;-85
2022/10/10 03:29:17;;;;;;;2.60;0.40;;;7.50;99.90;;;;;;6193005;23;20254;-83
2022/10/10 03:31:42;;;;;;;3.10;0.63;;;7.50;99.90;;;;;;6192112;22;20394;-82
2022/10/10 03:34:08;;;;;;;0.30;0.20;;;7.50;99.90;;;;;;6217425;23;20016;-83
2022/10/10 03:36:34;;;;;;;0.23;0.23;;;7.50;99.90;;;;;;6217837;23;20450;-85
2022/10/10 03:38:59;;;;;;;0.43;0.30;;;8.50;99.90;;;;;;6217436;23;20074;-83
2022/10/10 03:41:25;;;;;;;0.20;0.20;;;7.40;99.90;;;;;;6167176;23;20061;-87
2022/10/10 03:43:51;;;;;;;0.93;0.30;;;7.40;99.90;;;;;;6192647;23;20024;-86
2022/10/10 03:46:16;;;;;;;0.70;0.63;;;7.50;99.90;;;;;;6216188;23;20340;-83
2022/10/10 03:48:42;;;;;;;0.47;0.33;;;7.40;99.90;;;;;;6216708;23;20028;-83
2022/10/10 03:51:08;;;;;;;0.53;0.30;;;7.50;99.90;;;;;;6192092;23;20021;-84
2022/10/10 03:53:34;;;;;;;0.50;0.43;;;7.50;99.90;;;;;;6216873;23;20027;-83
2022/10/10 03:55:59;;;;;;;0.20;0.20;;;8.30;99.90;;;;;;6216603;23;20020;-83
2022/10/10 03:58:26;;;;;;;0.43;0.43;;;7.50;99.90;;;;;;6192718;23;20436;-83
2022/10/10 04:00:56;;;;;;;0.32;0.32;;;7.40;99.90;;;;;;6192716;23;20447;-83
2022/10/10 04:03:22;;;;;;;0.95;0.80;;;7.40;99.90;;;;;;6217266;23;20070;-83
2022/10/10 04:05:48;;;;;;;0.30;0.20;;;7.40;99.90;;;;;;6217664;23;20019;-83
2022/10/10 04:08:14;;;;;;;0.80;0.43;;;7.40;99.90;;;;;;6192056;23;20480;-83
2022/10/10 04:10:39;;;;;;;0.33;0.27;;;7.30;99.90;;;;;;6217888;23;20028;-83
2022/10/10 04:13:05;;;;;;;0.30;0.30;;;7.80;99.90;;;;;;6191140;23;20052;-84
2022/10/10 04:15:31;;;;;;;0.60;0.50;;;7.30;99.90;;;;;;6192135;23;20020;-83
2022/10/10 04:17:58;;;;;;;0.40;0.35;;;7.50;99.90;;;;;;6167309;23;20142;-86
2022/10/10 04:20:24;;;;;;;0.55;0.55;;;7.30;99.90;;;;;;6191827;23;20016;-83
2022/10/10 04:22:50;;;;;;;0.38;0.38;;;7.30;99.90;;;;;;6217060;23;20097;-84
2022/10/10 04:25:16;;;;;;;0.40;0.40;;;7.20;99.90;;;;;;6216706;23;20500;-83
2022/10/10 04:27:42;;;;;;;1.90;0.50;;;7.20;99.90;;;;;;6192361;23;20099;-82
2022/10/10 04:30:09;;;;;;;0.47;0.32;;;7.70;99.90;;;;;;6192166;23;20043;-83
2022/10/10 04:32:35;;;;;;;;;;;7.20;99.90;;;;;;6217166;23;20024;-83
2022/10/10 04:35:01;;;;;;;0.30;0.15;;;7.30;99.90;;;;;;6191246;23;19950;-83
2022/10/10 04:37:27;;;;;;;0.37;0.37;;;7.20;99.90;;;;;;6192283;23;20016;-83
2022/10/10 04:39:53;;;;;;;0.43;0.33;;;7.20;99.90;;;;;;6192300;23;20016;-83
2022/10/10 04:42:18;;;;;;;2.27;0.43;;;7.20;99.90;;;;;;6167057;23;20630;-83
2022/10/10 04:44:44;;;;;;;0.47;0.47;;;7.20;99.90;;;;;;6192038;23;20333;-83
2022/10/10 04:47:10;;;;;;;1.20;0.40;;;7.20;99.90;;;;;;6216788;23;20078;-83
2022/10/10 04:49:36;;;;;;;0.67;0.53;;;7.20;99.90;;;;;;6143132;23;20100;-83
2022/10/10 04:52:01;;;;;;;0.90;0.90;;;7.50;99.90;;;;;;6191993;23;20392;-87
2022/10/10 04:54:27;;;;;;;0.20;0.20;;;6.40;99.90;;;;;;6191962;23;20440;-83
2022/10/10 04:56:52;;;;;;;0.50;0.40;;;7.10;99.90;;;;;;6217409;23;20109;-83
2022/10/10 04:59:18;;;;;;;0.50;0.50;;;7.10;99.90;;;;;;6216646;23;20333;-84
2022/10/10 05:01:44;;;;;;;0.53;0.53;;;7.00;99.90;;;;;;6216868;23;20326;-83
2022/10/10 05:04:10;;;;;;;0.50;0.50;;;7.00;99.90;;;;;;6191061;23;20496;-83
2022/10/10 05:06:36;;;;;;;0.50;0.43;;;7.00;99.90;;;;;;6217519;23;20020;-83
2022/10/10 05:09:01;;;;;;;0.20;0.20;;;7.00;99.90;;;;;;6191841;23;20058;-86
2022/10/10 05:11:27;;;;;;;0.40;0.30;;;7.00;99.90;;;;;;6216651;23;20330;-84
2022/10/10 05:13:53;;;;;;;0.47;0.47;;;7.00;99.90;;;;;;6192363;23;20452;-83
2022/10/10 05:16:18;;;;;;;1.23;0.40;;;7.00;99.90;;;;;;6166835;23;20024;-84
2022/10/10 05:18:44;;;;;;;0.97;0.43;;;7.00;99.90;;;;;;6216669;23;20027;-83
2022/10/10 05:21:10;;;;;;;0.30;0.30;;;7.00;99.90;;;;;;6216650;23;20099;-83
2022/10/10 05:23:37;;;;;;;0.73;0.60;;;6.90;99.90;;;;;;6169107;23;20441;-85
2022/10/10 05:26:03;;;;;;;0.60;0.38;;;6.90;99.90;;;;;;6168944;23;20022;-83
2022/10/10 05:28:29;;;;;;;0.63;0.40;;;6.90;99.90;;;;;;6193564;23;20059;-83
2022/10/10 05:30:55;;;;;;;0.40;0.30;;;6.90;99.90;;;;;;6218588;23;20016;-83
2022/10/10 05:33:21;;;;;;;0.83;0.40;;;6.90;99.90;;;;;;6193136;23;20069;-83
2022/10/10 05:35:46;;;;;;;1.43;0.33;;;7.30;99.90;;;;;;6241223;23;20035;-83
2022/10/10 05:38:12;;;;;;;0.20;0.20;;;6.90;99.90;;;;;;6206347;23;20322;-83
2022/10/10 05:40:39;;;;;;;0.43;0.40;;;7.80;99.90;;;;;;6237232;23;20047;-83
2022/10/10 05:43:05;;;;;;;0.63;0.25;;;6.80;99.90;;;;;;6218968;23;20020;-82
2022/10/10 05:45:31;;;;;;;0.22;0.22;;;6.80;99.90;;;;;;6216966;23;20095;-81
2022/10/10 05:47:57;;;;;;;0.20;0.20;;;7.50;99.90;;;;;;6246660;23;20020;-83
2022/10/10 05:50:34;;;;;;;0.73;0.53;;;6.90;99.90;;;;;;6232337;23;20035;-82
2022/10/10 05:53:00;;;;;;;0.30;0.30;;;6.90;99.90;;;;;;6245774;23;20017;-81
2022/10/10 05:55:27;;;;;;;0.40;0.40;;;6.90;99.90;;;;;;6244306;23;20059;-81
2022/10/10 05:57:52;;;;;;;0.32;0.32;;;6.90;99.90;;;;;;6218776;23;20251;-81
2022/10/10 06:00:18;;;;;;;2.23;0.73;;;6.90;99.90;;;;;;6216640;23;20020;-82
2022/10/10 06:02:44;;;;;;;0.60;0.60;;;6.90;99.90;;;;;;6244717;23;20063;-83
2022/10/10 06:05:10;;;;;;;0.60;0.40;;;7.60;99.90;;;;;;6243766;23;20074;-82
2022/10/10 06:07:36;;;;;;;1.00;0.43;;;7.00;99.90;;;;;;6244034;23;20065;-80
2022/10/10 06:10:02;;;;;;;0.28;0.28;;;7.00;99.90;;;;;;6218757;23;20445;-77
2022/10/10 06:12:28;;;;;;;0.20;0.20;;;6.90;99.90;;;;;;6244782;23;20023;-79
2022/10/10 06:14:54;;;;;;;0.93;0.60;;;6.90;99.90;;;;;;6245667;23;20016;-80
2022/10/10 06:17:20;;;;;;;0.70;0.28;;;7.00;99.90;;;;;;6207186;23;20016;-79
2022/10/10 06:19:46;;;;;;;0.97;0.43;;;7.00;99.90;;;;;;6245338;23;20022;-82
2022/10/10 06:22:12;;;;;;;0.40;0.40;;;7.10;99.90;;;;;;6217855;23;20091;-85
2022/10/10 06:24:37;;;;;;;0.23;0.23;;;7.10;99.90;;;;;;6218331;23;20095;-82
2022/10/10 06:27:03;;;;;;;0.30;0.30;;;7.10;99.90;;;;;;6193418;23;20020;-84
2022/10/10 06:29:28;;;;;;;0.30;0.30;;;7.20;99.90;;;;;;6217573;23;20070;-84
2022/10/10 06:31:54;;;;;;;0.40;0.40;;;7.20;99.90;;;;;;6224401;22;20061;-84
2022/10/10 06:34:20;;;;;;;0.70;0.70;;;7.30;99.90;;;;;;6245818;22;20047;-83
2022/10/10 06:36:48;;;;;;;1.43;0.30;;;7.50;99.90;;;;;;6246961;22;20008;-83
2022/10/10 06:39:14;;;;;;;0.20;0.20;;;8.80;99.90;;;;;;6221590;22;20016;-87
2022/10/10 06:41:42;;;;;;;0.65;0.40;;;7.50;99.90;;;;;;6272492;22;20023;-83
2022/10/10 06:44:11;;;;;;;1.37;0.50;;;7.60;99.90;;;;;;6222024;22;20015;-83
2022/10/10 06:46:37;;;;;;;0.20;0.20;;;8.80;99.90;;;;;;6246236;22;20012;-84
2022/10/10 06:49:03;;;;;;;0.87;0.87;;;8.30;99.90;;;;;;6246512;22;20020;-84
2022/10/10 06:51:29;;;;;;;0.32;0.32;;;8.80;99.90;;;;;;6244735;22;20015;-84
2022/10/10 06:53:57;;;;;;;0.90;0.73;;;9.10;99.90;;;;;;6245777;22;20011;-84
2022/10/10 06:56:23;;;;;;;0.82;0.28;;;9.10;99.90;;;;;;6219790;22;20026;-84
2022/10/10 06:58:49;;;;;;;0.35;0.35;;;9.40;99.90;;;;;;6222155;22;20081;-84
2022/10/10 07:01:18;;;;;;;0.33;0.33;;;9.80;99.90;;;;;;6246905;22;20015;-84
2022/10/10 07:03:43;;;;;;;1.15;0.50;;;10.40;99.90;;;;;;6247331;22;20083;-84
2022/10/10 07:06:11;;;;;;;0.53;0.53;;;10.90;99.90;;;;;;6246999;22;20007;-84
2022/10/10 07:08:38;;;;;;;0.43;0.43;;;11.20;99.90;;;;;;6246425;22;20022;-83
2022/10/10 07:11:05;;;;;;;0.43;0.40;;;11.50;99.90;;;;;;6221248;22;20065;-85
2022/10/10 07:13:32;;;;;;;0.82;0.65;;;11.70;99.90;;;;;;6273677;22;20095;-85
2022/10/10 07:15:58;;;;;;;0.57;0.57;;;11.70;99.90;;;;;;6247059;22;20348;-84
2022/10/10 07:18:24;;;;;;;1.23;0.57;;;11.60;99.90;;;;;;6220836;22;20336;-84
2022/10/10 07:20:49;;;;;;;0.50;0.50;;;11.50;99.90;;;;;;6247424;22;20420;-84
2022/10/10 07:23:16;;;;;;;0.90;0.70;;;11.30;99.90;;;;;;6246550;22;20628;-84
2022/10/10 07:25:42;;;;;;;0.68;0.40;;;11.10;99.90;;;;;;6221006;22;20020;-85
2022/10/10 07:28:09;;;;;;;1.27;0.45;;;10.90;99.90;;;;;;6246426;22;20023;-84
2022/10/10 07:30:42;;;;;;;1.35;0.70;;;11.00;99.90;;;;;;6245646;22;20044;-84
2022/10/10 07:33:12;;;;;;;0.75;0.50;;;10.90;99.90;;;;;;6181829;23;1109629;-84
2022/10/10 07:35:38;;;;;;;0.65;0.65;;;10.80;99.90;;;;;;6193859;23;20027;-84
2022/10/10 07:38:04;;;;;;;0.47;0.40;;;10.80;99.90;;;;;;6218756;23;20012;-84
2022/10/10 07:40:29;;;;;;;0.73;0.63;;;10.70;99.90;;;;;;6217592;23;20333;-84
2022/10/10 07:42:55;;;;;;;0.70;0.40;;;10.60;99.90;;;;;;6218695;23;20023;-84
2022/10/10 07:45:21;;;;;;;0.37;0.33;;;10.70;99.90;;;;;;6193456;23;20016;-84
2022/10/10 07:47:46;;;;;;;0.67;0.50;;;10.70;99.90;;;;;;6192874;23;20507;-84
2022/10/10 07:50:12;;;;;;;0.80;0.60;;;10.60;99.90;;;;;;6193462;23;20035;-85
2022/10/10 07:52:39;;;;;;;0.63;0.40;;;10.70;99.90;;;;;;6217873;23;20037;-84
2022/10/10 07:55:06;;;;;;;1.15;0.80;;;10.90;99.90;;;;;;6218664;23;20027;-84
2022/10/10 07:57:34;;;;;;;0.50;0.50;;;11.10;99.90;;;;;;6217788;23;20018;-84
2022/10/10 08:00:08;;;;;;;0.70;0.40;;;11.30;99.90;;;;;;6168783;23;20012;-85
2022/10/10 08:02:34;;;;;;;0.40;0.25;;;11.40;99.90;;;;;;6217437;23;20039;-84
2022/10/10 08:04:59;;;;;;;0.50;0.50;;;11.40;99.90;;;;;;6193351;23;20024;-84
2022/10/10 08:07:25;;;;;;;0.40;0.40;;;11.60;99.90;;;;;;6218092;23;20012;-86
2022/10/10 08:09:51;;;;;;;0.77;0.60;;;11.70;99.90;;;;;;6193054;23;20480;-84
2022/10/10 08:12:16;;;;;;;0.50;0.50;;;12.00;99.90;;;;;;6244075;23;20024;-84
2022/10/10 08:14:42;;;;;;;0.40;0.40;;;12.00;99.90;;;;;;6217366;23;20019;-85
2022/10/10 08:17:08;;;;;;;1.90;0.60;;;12.00;99.90;;;;;;6168695;23;20039;-85
2022/10/10 08:19:34;;;;;;;0.43;0.40;;;12.00;99.90;;;;;;6192259;23;20115;-85
2022/10/10 08:21:59;;;;;;;0.40;0.40;;;11.90;99.90;;;;;;6168174;23;20016;-85
2022/10/10 08:24:25;;;;;;;0.30;0.30;;;11.90;99.90;;;;;;6193379;23;20016;-85
2022/10/10 08:26:53;;;;;;;0.40;0.40;;;11.90;99.90;;;;;;6192857;23;20025;-85
2022/10/10 08:29:19;;;;;;;0.75;0.45;;;12.30;99.90;;;;;;6169297;23;20016;-85
2022/10/10 08:31:45;;;;;;;0.57;0.57;;;11.90;99.90;;;;;;6192315;23;20521;-85
2022/10/10 08:34:10;;;;;;;1.30;0.50;;;11.80;99.90;;;;;;6224181;23;20047;-84
2022/10/10 08:36:37;;;;;;;0.90;0.33;;;11.80;99.90;;;;;;6217729;23;20044;-85
2022/10/10 08:39:06;;;;;;;1.23;0.77;;;11.70;99.90;;;;;;6193753;23;20047;-85
2022/10/10 08:41:38;;;;;;;1.40;0.45;;;11.70;99.90;;;;;;6193150;23;20048;-86
2022/10/10 08:44:24;;;;;;;1.13;0.60;;;11.90;99.90;;;;;;6193563;23;20028;-85
2022/10/10 08:46:57;;;;;;;2.20;0.50;;;11.90;99.90;;;;;;6217614;23;20031;-85
2022/10/10 08:49:35;;;;;;;0.95;0.40;;;12.00;99.90;;;;;;6193323;23;20024;-83
2022/10/10 08:52:27;;;;;;;1.08;0.70;;;12.10;99.90;;;;;;6218456;23;20020;-82
2022/10/10 08:54:54;;;;;;;0.50;0.50;;;12.20;99.90;;;;;;6176177;23;20063;-83
2022/10/10 08:57:34;;;;;;;0.50;0.40;;;12.30;99.90;;;;;;6222153;23;20024;-82
2022/10/10 09:00:04;;;;;;;0.95;0.60;;;12.40;99.90;;;;;;6194977;23;20016;-83
2022/10/10 09:03:00;;;;;;;0.60;0.40;;;12.40;99.90;;;;;;6246456;23;20090;-83
2022/10/10 09:06:03;;;;;;;1.10;0.50;;;12.50;99.90;;;;;;6171880;23;20332;-83
2022/10/10 09:08:48;;;;;;;0.68;0.68;;;12.60;99.90;;;;;;6194533;23;20020;-82
2022/10/10 09:11:21;;;;;;;1.30;0.50;;;12.60;99.90;;;;;;6220268;23;20016;-82
2022/10/10 09:14:15;;;;;;;0.65;0.50;;;12.60;99.90;;;;;;6218975;23;20048;-83
2022/10/10 09:16:50;;;;;;;0.80;0.50;;;12.70;99.90;;;;;;6193639;23;20023;-85
2022/10/10 09:19:24;;;;;;;0.47;0.47;;;12.70;99.90;;;;;;6194832;23;20511;-85
2022/10/10 09:21:55;;;;;;;0.60;0.60;;;12.80;99.90;;;;;;6219178;23;20023;-84
2022/10/10 09:24:33;;;;;;;0.38;0.32;;;12.80;99.90;;;;;;6197033;23;20511;-83
2022/10/10 09:27:03;;;;;;;;;;;12.90;99.90;;;;;;6219838;23;20144;-83
2022/10/10 09:29:41;;;;;;;0.65;0.65;;;12.90;99.90;;;;;;6219679;23;19923;-83
2022/10/10 09:32:27;;;;;;;0.95;0.50;;;13.00;99.90;;;;;;6194553;23;20016;-83
2022/10/10 09:34:56;;;;;;;0.73;0.40;;;13.20;99.90;;;;;;6218930;23;20030;-83
2022/10/10 09:37:30;;;;;;;0.90;0.47;;;13.30;99.90;;;;;;6219078;23;20020;-84
2022/10/10 09:40:24;;;;;;;1.60;0.63;;;13.40;99.90;;;;;;6218933;23;20354;-83
2022/10/10 09:42:50;;;;;;;0.73;0.55;;;13.50;99.90;;;;;;6216342;23;20078;-83
2022/10/10 09:45:40;;;;;;;0.20;0.20;;;13.60;99.90;;;;;;6219573;23;20048;-82
2022/10/10 09:48:09;;;;;;;0.60;0.55;;;13.70;99.90;;;;;;6219794;23;20018;-83
2022/10/10 09:50:36;;;;;;;0.98;0.38;;;13.90;99.90;;;;;;6219507;23;20071;-83
2022/10/10 09:53:02;;;;;;;1.15;0.40;;;14.00;99.90;;;;;;6192832;23;20016;-83
2022/10/10 09:55:37;;;;;;;0.83;0.57;;;14.20;99.90;;;;;;6218660;23;20388;-83
2022/10/10 09:58:29;;;;;;;0.47;0.47;;;14.10;99.90;;;;;;6219010;23;20102;-83
2022/10/10 10:01:13;;;;;;;1.45;0.68;;;14.20;99.90;;;;;;6209323;23;20016;-81
2022/10/10 10:03:39;;;;;;;0.40;0.40;;;14.20;99.90;;;;;;6245509;23;20016;-82
2022/10/10 10:06:08;;;;;;;0.65;0.65;;;14.20;99.90;;;;;;6245295;23;20023;-84
2022/10/10 10:08:35;;;;;;;0.40;0.40;;;14.20;99.90;;;;;;6218333;23;20341;-86
2022/10/10 10:11:03;;;;;;;1.45;0.90;;;14.20;99.90;;;;;;6192742;23;20020;-85
2022/10/10 10:13:33;;;;;;;1.85;0.50;;;14.20;99.90;;;;;;6218447;23;20472;-85
2022/10/10 10:16:09;;;;;;;0.73;0.70;;;14.20;99.90;;;;;;6217345;23;20012;-86
2022/10/10 10:18:41;;;;;;;1.33;0.60;;;14.20;99.90;;;;;;6193331;23;20020;-85
2022/10/10 10:21:07;;;;;;;0.50;0.50;;;14.30;99.90;;;;;;6217754;23;20098;-85
2022/10/10 10:23:35;;;;;;;1.00;0.50;;;14.30;99.90;;;;;;6218431;23;20111;-85
2022/10/10 10:26:05;;;;;;;1.10;0.60;;;14.40;99.90;;;;;;6217832;23;20259;-86
2022/10/10 10:28:38;;;;;;;0.40;0.40;;;14.50;99.90;;;;;;6218223;23;20016;-85
2022/10/10 10:31:05;;;;;;;0.47;0.47;;;14.70;99.90;;;;;;6217579;23;20672;-85
2022/10/10 10:33:58;;;;;;;1.55;0.25;;;14.70;99.90;;;;;;6182992;22;20016;-85
2022/10/10 10:36:30;;;;;;;0.50;0.40;;;14.80;99.90;;;;;;6249649;22;20504;-86
2022/10/10 10:39:04;;;;;;;0.70;0.70;;;15.00;99.90;;;;;;6248424;22;20099;-86
2022/10/10 10:41:45;;;;;;;0.82;0.70;;;15.20;99.90;;;;;;6224151;22;20012;-85
2022/10/10 10:44:23;;;;;;;1.40;0.50;;;15.40;99.90;;;;;;6223954;22;20015;-86
2022/10/10 10:46:59;;;;;;;0.52;0.52;;;15.60;99.90;;;;;;6249026;22;20034;-85
2022/10/10 10:49:53;;;;;;;2.15;0.40;;;15.80;99.90;;;;;;6224389;22;20057;-85
2022/10/10 10:52:38;;;;;;;0.63;0.32;;;16.00;99.90;;;;;;6223032;22;20016;-86
2022/10/10 10:55:37;;;;;;;1.25;0.50;;;16.30;99.90;;;;;;6223082;22;20407;-85
2022/10/10 10:58:05;;;;;;;0.50;0.47;;;16.40;99.90;;;;;;6247731;22;20059;-85
2022/10/10 11:00:44;;;;;;;1.30;0.35;;;16.40;99.90;;;;;;6249013;22;20016;-84
2022/10/10 11:03:22;;;;;;;0.43;0.43;;;16.30;99.90;;;;;;6247826;22;20016;-85
2022/10/10 11:06:06;;;;;;;0.20;0.20;;;16.30;99.90;;;;;;6248230;22;20015;-87
2022/10/10 11:08:42;;;;;;;0.65;0.38;;;16.30;99.90;;;;;;6222011;22;20094;-84
2022/10/10 11:11:44;;;;;;;0.43;0.40;;;16.30;99.90;;;;;;6247426;22;20825;-84
2022/10/10 11:14:39;;;;;;;0.47;0.40;;;16.20;99.90;;;;;;6223304;22;20614;-83
2022/10/10 11:17:30;;;;;;;0.88;0.52;;;16.10;99.90;;;;;;6275627;22;20375;-80
2022/10/10 11:20:20;;;;;;;0.22;0.20;;;16.00;99.90;;;;;;6247241;22;20015;-85
2022/10/10 11:23:05;;;;;;;0.45;0.30;;;15.80;99.90;;;;;;6221863;22;20043;-86
2022/10/10 11:25:56;;;;;;;1.48;0.52;;;15.70;99.90;;;;;;6247123;22;20511;-86
2022/10/10 11:28:38;;;;;;;0.82;0.45;;;15.50;99.90;;;;;;6223543;22;20132;-85
2022/10/10 11:31:35;;;;;;;0.57;0.57;;;15.30;99.90;;;;;;6248671;22;20336;-85
2022/10/10 11:34:11;;;;;;;1.30;0.55;;;15.20;99.90;;;;;;6203315;23;20078;-86
2022/10/10 11:36:43;;;;;;;0.28;0.28;;;15.10;99.90;;;;;;6218084;23;20016;-85
2022/10/10 11:39:18;;;;;;;0.40;0.40;;;15.00;99.90;;;;;;6216412;23;20086;-85
2022/10/10 11:42:12;;;;;;;0.40;0.40;;;14.90;99.90;;;;;;6217743;23;20011;-87
2022/10/10 11:44:46;;;;;;;0.32;0.30;;;14.80;99.90;;;;;;6191797;23;20086;-87
2022/10/10 11:47:27;;;;;;;1.42;0.50;;;14.70;99.90;;;;;;6168079;23;20016;-87
2022/10/10 11:50:25;;;;;;;0.45;0.45;;;14.60;99.90;;;;;;6218015;23;20475;-86
2022/10/10 11:53:16;;;;;;;1.15;0.63;;;14.50;99.90;;;;;;6217300;23;20016;-86
2022/10/10 11:56:00;;;;;;;0.73;0.60;;;14.50;99.90;;;;;;6217658;23;20501;-87
2022/10/10 11:58:53;;;;;;;0.38;0.32;;;14.40;99.90;;;;;;6193113;23;20020;-86
2022/10/10 12:01:27;;;;;;;0.30;0.20;;;14.30;99.90;;;;;;6220315;23;20012;-85
2022/10/10 12:03:56;;;;;;;0.95;0.38;;;14.20;99.90;;;;;;6218355;23;20336;-84
2022/10/10 12:06:40;;;;;;;0.50;0.40;;;14.10;99.90;;;;;;6192652;23;20016;-84
2022/10/10 12:09:29;;;;;;;0.38;0.28;;;14.10;99.90;;;;;;6217156;23;20016;-84
2022/10/10 12:12:06;;;;;;;0.85;0.70;;;14.00;99.90;;;;;;6240330;23;20054;-84
2022/10/10 12:14:39;;;;;;;0.40;0.40;;;14.00;99.90;;;;;;6217197;23;20017;-85
2022/10/10 12:17:37;;;;;;;1.83;0.73;;;14.00;99.90;;;;;;6243295;23;20012;-85
2022/10/10 12:20:26;;;;;;;0.40;0.40;;;14.00;99.90;;;;;;6215990;23;20013;-85
2022/10/10 12:23:14;;;;;;;0.20;0.20;;;13.90;99.90;;;;;;6216702;23;20016;-84
2022/10/10 12:25:45;;;;;;;0.98;0.60;;;13.90;99.90;;;;;;6194328;23;20051;-84
2022/10/10 12:28:15;;;;;;;0.90;0.50;;;13.90;99.90;;;;;;6216638;23;20048;-84
2022/10/10 12:30:56;;;;;;;1.42;0.50;;;13.90;99.90;;;;;;6218333;23;20067;-83
2022/10/10 12:33:25;;;;;;;0.47;0.30;;;13.90;99.90;;;;;;6216098;23;20445;-85
2022/10/10 12:35:52;;;;;;;0.50;0.43;;;13.90;99.90;;;;;;6192246;23;20020;-86
2022/10/10 12:38:19;;;;;;;0.73;0.50;;;13.90;99.90;;;;;;6217382;23;20070;-85
2022/10/10 12:41:06;;;;;;;0.43;0.35;;;13.90;99.90;;;;;;6218207;23;20028;-85
2022/10/10 12:43:49;;;;;;;0.52;0.52;;;13.90;99.90;;;;;;6193161;23;20059;-86
2022/10/10 12:46:28;;;;;;;0.73;0.40;;;13.80;99.90;;;;;;6216472;23;20016;-85
2022/10/10 12:49:15;;;;;;;0.93;0.52;;;13.90;99.90;;;;;;6218225;23;20020;-82
2022/10/10 12:51:42;;;;;;;1.17;0.77;;;13.90;99.90;;;;;;6192662;23;20020;-83
2022/10/10 12:54:18;;;;;;;0.90;0.50;;;13.90;99.90;;;;;;6217595;23;20016;-84
2022/10/10 12:56:46;;;;;;;1.77;0.70;;;13.80;99.90;;;;;;6244443;23;20436;-83
2022/10/10 12:59:24;;;;;;;0.60;0.60;;;13.90;99.90;;;;;;6217288;23;20016;-83
2022/10/10 13:02:04;;;;;;;0.60;0.60;;;13.80;99.90;;;;;;6191525;23;20012;-84
2022/10/10 13:04:30;;;;;;;1.00;0.65;;;13.80;99.90;;;;;;6217466;23;20372;-83
2022/10/10 13:06:59;;;;;;;1.67;1.00;;;13.80;99.90;;;;;;6217204;23;20024;-83
2022/10/10 13:09:30;;;;;;;0.55;0.55;;;13.70;99.90;;;;;;6191802;23;20082;-84
2022/10/10 13:12:02;;;;;;;0.50;0.50;;;13.70;99.90;;;;;;6218347;23;20079;-84
2022/10/10 13:14:42;;;;;;;1.30;0.80;;;13.70;99.90;;;;;;6217116;23;20022;-84
2022/10/10 13:17:24;;;;;;;1.08;0.68;;;13.70;99.90;;;;;;6190944;23;20020;-84